createdAt,value
2022-09-16T00:01:14.452Z,13.50
2022-09-16T00:04:22.601Z,13.46
2022-09-16T00:07:32.644Z,13.29
2022-09-16T00:10:41.476Z,13.05
2022-09-16T00:13:49.882Z,13.07
2022-09-16T00:16:58.336Z,12.98
2022-09-16T00:20:08.439Z,13.07
2022-09-16T00:23:19.866Z,13.18
2022-09-16T00:26:29.848Z,13.10
2022-09-16T00:29:38.187Z,13.12
2022-09-16T00:32:46.451Z,13.18
2022-09-16T00:36:04.927Z,13.20
2022-09-16T00:39:14.805Z,13.20
2022-09-16T00:42:23.174Z,13.24
2022-09-16T00:45:35.751Z,13.14
2022-09-16T00:48:44.630Z,13.08
2022-09-16T00:51:57.927Z,13.17
2022-09-16T00:55:12.988Z,12.91
2022-09-16T00:58:29.157Z,12.93
2022-09-16T01:01:39.393Z,13.15
2022-09-16T01:04:52.874Z,12.91
2022-09-16T01:08:01.615Z,12.96
2022-09-16T01:11:11.099Z,13.00
2022-09-16T01:14:40.870Z,12.96
2022-09-16T01:18:03.404Z,12.87
2022-09-16T01:21:38.896Z,12.76
2022-09-16T01:25:01.125Z,12.84
2022-09-16T01:28:40.417Z,12.85
2022-09-16T01:32:01.246Z,12.72
2022-09-16T01:35:21.863Z,12.74
2022-09-16T01:38:49.695Z,12.80
2022-09-16T01:42:16.109Z,12.83
2022-09-16T01:45:37.380Z,12.87
2022-09-16T01:48:58.055Z,12.77
2022-09-16T01:52:20.607Z,12.69
2022-09-16T01:55:38.061Z,12.70
2022-09-16T01:58:54.430Z,12.72
2022-09-16T02:02:10.499Z,12.69
2022-09-16T02:05:27.808Z,12.61
2022-09-16T02:08:44.893Z,12.71
2022-09-16T02:11:59.256Z,12.87
2022-09-16T02:15:14.540Z,12.90
2022-09-16T02:18:30.396Z,12.89
2022-09-16T02:21:45.887Z,12.91
2022-09-16T02:24:54.678Z,12.88
2022-09-16T02:28:12.609Z,12.92
2022-09-16T02:31:27.137Z,12.88
2022-09-16T02:34:41.859Z,12.92
2022-09-16T02:37:57.231Z,12.97
2022-09-16T02:41:06.230Z,12.92
2022-09-16T02:44:14.949Z,12.93
2022-09-16T02:47:34.016Z,13.01
2022-09-16T02:50:49.052Z,12.99
2022-09-16T02:54:06.950Z,13.03
2022-09-16T02:57:16.478Z,13.00
2022-09-16T03:00:25.788Z,13.02
2022-09-16T03:03:34.247Z,13.05
2022-09-16T03:06:42.694Z,13.02
2022-09-16T03:09:53.279Z,13.03
2022-09-16T03:13:13.485Z,13.00
2022-09-16T03:16:33.796Z,12.93
2022-09-16T03:19:56.872Z,12.96
2022-09-16T03:23:20.030Z,12.81
2022-09-16T03:26:39.739Z,12.67
2022-09-16T03:29:57.098Z,12.68
2022-09-16T03:33:14.485Z,12.59
2022-09-16T03:36:33.528Z,12.50
2022-09-16T03:39:43.192Z,12.48
2022-09-16T03:42:52.796Z,12.48
2022-09-16T03:46:00.985Z,12.43
2022-09-16T03:49:09.249Z,12.40
2022-09-16T03:52:20.753Z,12.38
2022-09-16T03:55:29.625Z,12.27
2022-09-16T03:58:39.207Z,12.31
2022-09-16T04:01:47.923Z,12.24
2022-09-16T04:04:56.887Z,12.20
2022-09-16T04:08:06.952Z,12.37
2022-09-16T04:11:15.823Z,12.42
2022-09-16T04:14:25.502Z,12.35
2022-09-16T04:17:34.643Z,12.48
2022-09-16T04:20:44.275Z,12.31
2022-09-16T04:23:54.628Z,12.34
2022-09-16T04:27:02.961Z,12.35
2022-09-16T04:30:14.760Z,12.43
2022-09-16T04:33:23.320Z,12.47
2022-09-16T04:36:32.059Z,12.45
2022-09-16T04:39:40.212Z,12.44
2022-09-16T04:42:51.262Z,12.51
2022-09-16T04:46:01.250Z,12.53
2022-09-16T04:49:09.456Z,12.49
2022-09-16T04:52:17.775Z,12.47
2022-09-16T04:55:26.072Z,12.54
2022-09-16T04:58:34.667Z,12.65
2022-09-16T05:01:45.852Z,12.72
2022-09-16T05:04:54.729Z,12.74
2022-09-16T05:08:03.544Z,12.73
2022-09-16T05:11:13.966Z,12.80
2022-09-16T05:14:22.277Z,12.90
2022-09-16T05:17:50.455Z,12.81
2022-09-16T05:21:01.101Z,12.82
2022-09-16T05:24:12.849Z,12.97
2022-09-16T05:27:22.240Z,13.03
2022-09-16T05:30:30.528Z,13.02
2022-09-16T05:33:41.228Z,13.04
2022-09-16T05:36:53.949Z,13.09
2022-09-16T05:40:02.529Z,13.09
2022-09-16T05:43:10.755Z,13.17
2022-09-16T05:46:22.244Z,13.07
2022-09-16T05:49:32.281Z,13.20
2022-09-16T05:52:40.576Z,13.11
2022-09-16T05:55:58.376Z,13.09
2022-09-16T05:59:07.038Z,13.05
2022-09-16T06:02:15.399Z,13.05
2022-09-16T06:05:25.108Z,13.12
2022-09-16T06:08:35.767Z,13.24
2022-09-16T06:11:47.425Z,13.20
2022-09-16T06:14:55.750Z,13.35
2022-09-16T06:18:06.438Z,13.53
2022-09-16T06:21:16.806Z,13.69
2022-09-16T06:24:25.491Z,13.85
2022-09-16T06:27:34.031Z,14.00
2022-09-16T06:30:43.136Z,13.98
2022-09-16T06:33:52.804Z,14.07
2022-09-16T06:37:03.650Z,14.07
2022-09-16T06:40:12.474Z,14.16
2022-09-16T06:43:20.734Z,14.33
2022-09-16T06:46:30.191Z,14.47
2022-09-16T06:49:38.536Z,14.50
2022-09-16T06:52:51.880Z,14.42
2022-09-16T06:56:03.199Z,14.36
2022-09-16T06:59:14.293Z,14.39
2022-09-16T07:02:22.558Z,14.32
2022-09-16T07:05:30.924Z,14.31
2022-09-16T07:08:42.168Z,14.31
2022-09-16T07:11:50.840Z,14.39
2022-09-16T07:14:59.228Z,14.38
2022-09-16T07:18:08.824Z,14.30
2022-09-16T07:21:20.187Z,14.36
2022-09-16T07:24:29.939Z,14.18
2022-09-16T07:27:38.153Z,14.09
2022-09-16T07:30:46.639Z,14.08
2022-09-16T07:34:02.821Z,14.20
2022-09-16T07:37:12.774Z,14.23
2022-09-16T07:40:24.555Z,14.32
2022-09-16T07:43:35.470Z,14.32
2022-09-16T07:46:44.619Z,14.23
2022-09-16T07:49:55.961Z,14.32
2022-09-16T07:53:04.582Z,14.38
2022-09-16T07:56:17.262Z,14.66
2022-09-16T07:59:25.430Z,14.84
2022-09-16T08:02:33.721Z,15.05
2022-09-16T08:05:42.174Z,14.84
2022-09-16T08:08:53.639Z,15.10
2022-09-16T08:12:06.448Z,15.28
2022-09-16T08:15:14.884Z,15.24
2022-09-16T08:18:23.569Z,15.19
2022-09-16T08:21:32.845Z,15.02
2022-09-16T08:24:41.308Z,15.08
2022-09-16T08:27:54.140Z,15.09
2022-09-16T08:31:04.879Z,15.22
2022-09-16T08:34:13.202Z,15.38
2022-09-16T08:37:21.916Z,15.46
2022-09-16T08:40:37.212Z,15.58
2022-09-16T08:43:56.852Z,15.71
2022-09-16T08:47:16.848Z,15.92
2022-09-16T08:50:32.859Z,15.79
2022-09-16T08:53:47.657Z,15.58
2022-09-16T08:57:01.888Z,15.73
2022-09-16T09:00:17.876Z,15.95
2022-09-16T09:03:38.223Z,16.29
2022-09-16T09:07:02.999Z,16.27
2022-09-16T09:10:24.511Z,16.22
2022-09-16T09:14:07.029Z,16.51
2022-09-16T09:17:48.676Z,16.11
2022-09-16T09:21:20.656Z,16.33
2022-09-16T09:24:48.405Z,16.11
2022-09-16T09:30:53.649Z,16.26
2022-09-16T09:34:18.378Z,16.08
2022-09-16T09:37:51.692Z,15.99
2022-09-16T09:41:09.385Z,16.00
2022-09-16T09:44:42.343Z,16.07
2022-09-16T09:48:02.040Z,16.43
2022-09-16T09:51:24.317Z,16.94
2022-09-16T09:54:36.260Z,16.80
2022-09-16T09:58:02.688Z,16.77
2022-09-16T10:01:12.699Z,15.67
2022-09-16T10:04:22.443Z,15.42
2022-09-16T10:07:31.103Z,15.02
2022-09-16T10:10:52.786Z,14.88
2022-09-16T10:14:05.728Z,14.97
2022-09-16T10:17:18.949Z,15.23
2022-09-16T10:20:35.714Z,15.60
2022-09-16T10:23:57.282Z,15.73
2022-09-16T10:27:22.592Z,15.33
2022-09-16T10:30:34.226Z,14.94
2022-09-16T10:33:46.247Z,15.13
2022-09-16T10:37:17.729Z,15.41
2022-09-16T10:40:27.666Z,15.06
2022-09-16T10:43:39.658Z,14.98
2022-09-16T10:46:55.739Z,15.42
2022-09-16T10:50:07.308Z,15.37
2022-09-16T10:53:30.986Z,15.29
2022-09-16T10:56:51.309Z,15.25
2022-09-16T11:00:04.750Z,15.05
2022-09-16T11:04:16.264Z,14.66
2022-09-16T11:07:43.003Z,14.26
2022-09-16T11:11:02.204Z,14.88
2022-09-16T11:14:22.518Z,15.90
2022-09-16T11:17:53.121Z,16.87
2022-09-16T11:21:29.446Z,17.93
2022-09-16T11:25:21.192Z,18.49
2022-09-16T11:29:10.333Z,17.09
2022-09-16T11:32:30.894Z,17.31
2022-09-16T11:36:11.457Z,17.28
2022-09-16T11:39:42.334Z,16.75
2022-09-16T11:43:02.307Z,16.08
2022-09-16T11:46:21.287Z,15.57
2022-09-16T11:49:56.928Z,15.03
2022-09-16T11:53:46.126Z,14.81
2022-09-16T11:57:01.832Z,13.31
2022-09-16T12:00:19.168Z,13.02
2022-09-16T12:03:39.723Z,12.73
2022-09-16T12:07:07.460Z,12.15
2022-09-16T12:10:23.272Z,11.82
2022-09-16T12:13:41.822Z,11.52
2022-09-16T12:16:58.918Z,11.17
2022-09-16T12:20:20.690Z,11.15
2022-09-16T12:23:36.017Z,11.51
2022-09-16T12:26:53.577Z,11.94
2022-09-16T12:30:09.037Z,12.23
2022-09-16T12:33:24.423Z,12.07
2022-09-16T12:36:41.090Z,11.92
2022-09-16T12:39:51.884Z,11.40
2022-09-16T12:43:42.419Z,11.52
2022-09-16T12:47:13.233Z,12.07
2022-09-16T12:50:54.621Z,12.70
2022-09-16T12:55:07.088Z,11.75
2022-09-16T12:58:58.401Z,11.42
2022-09-16T13:02:18.595Z,11.18
2022-09-16T13:05:33.575Z,11.24
2022-09-16T13:08:42.901Z,11.27
2022-09-16T13:12:36.728Z,11.29
2022-09-16T13:15:34.656Z,11.39
2022-09-16T13:18:48.025Z,11.35
2022-09-16T13:22:03.756Z,11.14
2022-09-16T13:25:25.637Z,11.03
2022-09-16T13:28:45.775Z,11.08
2022-09-16T13:35:24.374Z,11.24
2022-09-16T13:38:42.587Z,11.52
2022-09-16T13:41:53.086Z,11.68
2022-09-16T13:45:05.453Z,11.51
2022-09-16T13:48:19.497Z,11.20
2022-09-16T13:51:35.906Z,11.29
2022-09-16T13:55:10.026Z,11.10
2022-09-16T13:58:30.912Z,11.09
2022-09-16T14:01:59.918Z,10.95
2022-09-16T14:05:36.878Z,11.01
2022-09-16T14:08:59.321Z,11.09
2022-09-16T14:12:19.881Z,11.22
2022-09-16T14:15:31.128Z,11.30
2022-09-16T14:18:50.453Z,11.53
2022-09-16T14:22:04.844Z,11.62
2022-09-16T14:25:32.452Z,11.68
2022-09-16T14:28:42.164Z,11.81
2022-09-16T14:31:53.461Z,11.91
2022-09-16T14:35:11.935Z,11.91
2022-09-16T14:38:44.274Z,12.10
2022-09-16T14:41:56.995Z,12.02
2022-09-16T14:45:08.323Z,12.29
2022-09-16T14:48:20.308Z,12.48
2022-09-16T14:51:30.105Z,12.59
2022-09-16T14:54:45.725Z,12.56
2022-09-16T14:57:54.359Z,12.74
2022-09-16T15:01:12.096Z,12.79
2022-09-16T15:04:28.587Z,12.89
2022-09-16T15:08:02.575Z,12.69
2022-09-16T15:11:36.213Z,12.74
2022-09-16T15:14:45.649Z,12.63
2022-09-16T15:17:58.494Z,12.49
2022-09-16T15:21:12.268Z,12.49
2022-09-16T15:24:28.904Z,12.33
2022-09-16T15:27:37.389Z,12.30
2022-09-16T15:30:49.775Z,12.18
2022-09-16T15:34:00.420Z,12.29
2022-09-16T15:37:32.164Z,12.24
2022-09-16T15:40:43.145Z,12.42
2022-09-16T15:43:51.613Z,12.41
2022-09-16T15:47:00.211Z,12.42
2022-09-16T15:50:16.307Z,12.33
2022-09-16T15:53:42.818Z,12.03
2022-09-16T15:57:02.740Z,11.92
2022-09-16T16:00:16.243Z,12.03
2022-09-16T16:03:25.234Z,11.85
2022-09-16T16:06:51.793Z,12.06
2022-09-16T16:10:17.027Z,11.93
2022-09-16T16:13:37.401Z,11.66
2022-09-16T16:17:11.135Z,11.64
2022-09-16T16:20:20.715Z,11.70
2022-09-16T16:23:29.653Z,11.63
2022-09-16T16:26:38.408Z,11.40
2022-09-16T16:29:48.705Z,11.27
2022-09-16T16:32:57.528Z,11.44
2022-09-16T16:36:06.971Z,11.29
2022-09-16T16:39:15.496Z,11.42
2022-09-16T16:42:25.472Z,11.31
2022-09-16T16:45:36.009Z,11.35
2022-09-16T16:48:45.362Z,11.24
2022-09-16T16:51:57.765Z,11.15
2022-09-16T16:55:07.298Z,10.92
2022-09-16T16:58:15.822Z,11.02
2022-09-16T17:01:26.761Z,10.97
2022-09-16T17:04:35.353Z,11.14
2022-09-16T17:07:44.127Z,11.21
2022-09-16T17:11:08.062Z,11.20
2022-09-16T17:14:17.057Z,11.01
2022-09-16T17:17:31.351Z,11.15
2022-09-16T17:20:40.249Z,11.02
2022-09-16T17:23:48.496Z,10.99
2022-09-16T17:26:57.346Z,10.98
2022-09-16T17:30:07.868Z,11.00
2022-09-16T17:33:17.592Z,10.94
2022-09-16T17:36:26.765Z,10.85
2022-09-16T17:39:35.093Z,10.90
2022-09-16T17:42:43.270Z,10.71
2022-09-16T17:45:53.351Z,10.80
2022-09-16T17:49:06.405Z,10.84
2022-09-16T17:52:15.002Z,10.97
2022-09-16T17:55:23.403Z,10.80
2022-09-16T17:58:32.524Z,10.82
2022-09-16T18:01:41.267Z,10.79
2022-09-16T18:04:51.396Z,10.85
2022-09-16T18:08:00.498Z,10.69
2022-09-16T18:11:13.392Z,10.54
2022-09-16T18:14:23.589Z,10.57
2022-09-16T18:17:32.199Z,10.53
2022-09-16T18:20:42.530Z,10.53
2022-09-16T18:23:56.329Z,10.59
2022-09-16T18:27:05.353Z,10.49
2022-09-16T18:30:17.564Z,10.65
2022-09-16T18:33:25.733Z,10.58
2022-09-16T18:36:36.937Z,10.66
2022-09-16T18:39:47.216Z,10.55
2022-09-16T18:42:56.679Z,10.58
2022-09-16T18:46:12.531Z,10.52
2022-09-16T18:49:24.197Z,10.68
2022-09-16T18:52:34.160Z,10.67
2022-09-16T18:55:42.784Z,10.50
2022-09-16T18:59:17.281Z,10.60
2022-09-16T19:02:21.408Z,10.74
2022-09-16T19:05:29.697Z,10.78
2022-09-16T19:08:40.914Z,10.57
2022-09-16T19:11:50.547Z,10.78
2022-09-16T19:14:58.964Z,10.81
2022-09-16T19:18:07.294Z,10.71
2022-09-16T19:21:19.296Z,10.62
2022-09-16T19:24:30.957Z,10.52
2022-09-16T19:27:40.750Z,10.43
2022-09-16T19:30:49.641Z,10.39
2022-09-16T19:33:59.342Z,10.43
2022-09-16T19:37:07.842Z,10.42
2022-09-16T19:40:19.404Z,10.49
2022-09-16T19:43:28.264Z,10.44
2022-09-16T19:46:39.277Z,10.65
2022-09-16T19:49:48.366Z,10.69
2022-09-16T19:53:00.296Z,10.35
2022-09-16T19:56:17.111Z,10.52
2022-09-16T19:59:25.562Z,10.41
2022-09-16T20:02:35.605Z,10.45
2022-09-16T20:05:44.012Z,10.41
2022-09-16T20:08:56.983Z,10.55
2022-09-16T20:12:07.625Z,10.60
2022-09-16T20:15:16.866Z,10.48
2022-09-16T20:18:25.711Z,10.43
2022-09-16T20:21:36.365Z,10.48
2022-09-16T20:24:45.317Z,10.51
2022-09-16T20:27:56.269Z,10.65
2022-09-16T20:31:05.794Z,10.60
2022-09-16T20:34:16.271Z,10.59
2022-09-16T20:37:27.898Z,10.52
2022-09-16T20:40:37.128Z,10.49
2022-09-16T20:43:49.889Z,10.62
2022-09-16T20:46:58.665Z,10.47
2022-09-16T20:50:09.287Z,10.54
2022-09-16T20:53:17.886Z,10.72
2022-09-16T20:56:35.262Z,10.76
2022-09-16T20:59:47.721Z,10.76
2022-09-16T21:02:57.427Z,10.79
2022-09-16T21:06:09.813Z,10.67
2022-09-16T21:09:19.670Z,10.72
2022-09-16T21:12:30.304Z,10.57
2022-09-16T21:15:40.523Z,10.64
2022-09-16T21:18:55.034Z,10.68
2022-09-16T21:22:03.776Z,10.72
2022-09-16T21:25:12.434Z,10.68
2022-09-16T21:28:20.662Z,10.68
2022-09-16T21:31:34.643Z,10.69
2022-09-16T21:34:43.324Z,10.71
2022-09-16T21:37:52.061Z,10.67
2022-09-16T21:41:03.733Z,10.68
2022-09-16T21:44:12.957Z,10.78
2022-09-16T21:47:22.936Z,10.78
2022-09-16T21:50:32.180Z,10.68
2022-09-16T21:53:42.888Z,10.66
2022-09-16T21:56:52.804Z,10.74
2022-09-16T22:00:01.023Z,10.69
2022-09-16T22:03:19.094Z,10.81
2022-09-16T22:06:28.184Z,10.75
2022-09-16T22:09:36.687Z,10.78
2022-09-16T22:12:45.152Z,10.74
2022-09-16T22:15:53.769Z,10.77
2022-09-16T22:19:06.910Z,10.66
2022-09-16T22:22:15.212Z,10.64
2022-09-16T22:25:24.258Z,10.59
2022-09-16T22:28:35.209Z,10.58
2022-09-16T22:31:43.742Z,10.51
2022-09-16T22:34:53.648Z,10.47
2022-09-16T22:38:01.776Z,10.40
2022-09-16T22:41:11.081Z,10.31
2022-09-16T22:44:19.440Z,10.24
2022-09-16T22:47:27.873Z,10.20
2022-09-16T22:50:37.661Z,10.16
2022-09-16T22:53:46.931Z,10.28
2022-09-16T22:56:55.225Z,10.26
2022-09-16T23:00:04.305Z,10.25
2022-09-16T23:03:12.763Z,10.30
2022-09-16T23:06:23.728Z,10.48
2022-09-16T23:09:31.960Z,10.37
2022-09-16T23:12:40.898Z,10.46
2022-09-16T23:15:53.612Z,10.46
2022-09-16T23:19:05.744Z,10.56
2022-09-16T23:22:15.492Z,10.43
2022-09-16T23:25:24.261Z,10.61
2022-09-16T23:28:32.776Z,10.65
2022-09-16T23:31:45.010Z,10.61
2022-09-16T23:34:53.406Z,10.58
2022-09-16T23:38:03.054Z,10.54
2022-09-16T23:41:15.132Z,10.59
2022-09-16T23:44:25.606Z,10.50
2022-09-16T23:47:33.683Z,10.44
2022-09-16T23:50:42.105Z,10.46
2022-09-16T23:53:55.339Z,10.43
2022-09-16T23:57:03.744Z,10.47
